createdAt,value
2022-12-15T00:00:30.190Z,99791.59
2022-12-15T00:03:16.853Z,99798.66
2022-12-15T00:06:03.426Z,99805.31
2022-12-15T00:08:49.941Z,99807.69
2022-12-15T00:11:36.905Z,99809.56
2022-12-15T00:14:24.080Z,99809.91
2022-12-15T00:17:10.682Z,99816.09
2022-12-15T00:19:57.228Z,99818.00
2022-12-15T00:22:44.151Z,99816.69
2022-12-15T00:25:30.816Z,99823.66
2022-12-15T00:28:17.330Z,99814.81
2022-12-15T00:31:04.045Z,99818.63
2022-12-15T00:33:50.522Z,99829.91
2022-12-15T00:36:37.275Z,99827.81
2022-12-15T00:39:06.529Z,99834.78
2022-12-15T00:41:34.854Z,99837.44
2022-12-15T00:44:03.236Z,99834.16
2022-12-15T00:46:50.019Z,99835.59
2022-12-15T00:49:36.504Z,99841.47
2022-12-15T00:52:23.011Z,99845.22
2022-12-15T00:55:09.595Z,99841.16
2022-12-15T00:57:56.649Z,99850.88
2022-12-15T01:00:43.125Z,99846.25
2022-12-15T01:03:34.388Z,99853.22
2022-12-15T01:06:29.495Z,99861.75
2022-12-15T01:09:16.484Z,99861.97
2022-12-15T01:12:03.803Z,99865.75
2022-12-15T01:14:51.791Z,99867.91
2022-12-15T01:17:38.711Z,99870.53
2022-12-15T01:20:20.104Z,99877.84
2022-12-15T01:22:54.703Z,99876.06
2022-12-15T01:25:26.162Z,99882.19
2022-12-15T01:27:55.136Z,99884.72
2022-12-15T01:30:26.091Z,99881.72
2022-12-15T01:32:54.883Z,99882.25
2022-12-15T01:35:23.466Z,99876.50
2022-12-15T01:37:51.774Z,99883.00
2022-12-15T01:40:40.266Z,99884.75
2022-12-15T01:43:21.794Z,99882.53
2022-12-15T01:45:57.659Z,99886.63
2022-12-15T01:48:31.752Z,99887.19
2022-12-15T01:51:17.305Z,99884.47
2022-12-15T01:54:04.952Z,99889.78
2022-12-15T01:56:38.291Z,99883.22
2022-12-15T01:59:12.597Z,99886.81
2022-12-15T02:01:41.350Z,99882.25
2022-12-15T02:04:10.368Z,99876.47
2022-12-15T02:06:38.894Z,99871.88
2022-12-15T02:09:07.368Z,99868.84
2022-12-15T02:11:50.603Z,99869.34
2022-12-15T02:14:45.654Z,99870.63
2022-12-15T02:17:13.937Z,99876.53
2022-12-15T02:20:00.346Z,99871.84
2022-12-15T02:23:09.885Z,99865.88
2022-12-15T02:26:12.749Z,99865.78
2022-12-15T02:28:59.010Z,99859.03
2022-12-15T02:31:51.603Z,99870.94
2022-12-15T02:34:59.293Z,99868.06
2022-12-15T02:37:39.269Z,99865.59
2022-12-15T02:40:10.971Z,99864.84
2022-12-15T02:42:46.914Z,99865.66
2022-12-15T02:45:18.113Z,99859.34
2022-12-15T02:47:55.195Z,99860.56
2022-12-15T02:50:47.905Z,99851.03
2022-12-15T02:53:48.801Z,99854.09
2022-12-15T02:56:19.804Z,99850.84
2022-12-15T02:58:59.363Z,99852.84
2022-12-15T03:01:46.652Z,99852.53
2022-12-15T03:04:15.242Z,99849.72
2022-12-15T03:06:43.932Z,99849.41
2022-12-15T03:09:12.289Z,99843.03
2022-12-15T03:11:40.741Z,99843.97
2022-12-15T03:14:09.086Z,99845.19
2022-12-15T03:16:37.423Z,99840.06
2022-12-15T03:19:05.756Z,99828.13
2022-12-15T03:21:34.068Z,99821.44
2022-12-15T03:24:02.376Z,99824.66
2022-12-15T03:26:30.655Z,99820.00
2022-12-15T03:28:58.973Z,99820.69
2022-12-15T03:31:27.964Z,99806.13
2022-12-15T03:33:59.214Z,99813.66
2022-12-15T03:36:27.491Z,99816.38
2022-12-15T03:38:55.775Z,99804.13
2022-12-15T03:41:24.045Z,99796.16
2022-12-15T03:43:52.331Z,99791.78
2022-12-15T03:46:20.688Z,99786.59
2022-12-15T03:48:49.019Z,99783.94
2022-12-15T03:51:17.384Z,99784.34
2022-12-15T03:53:45.688Z,99776.19
2022-12-15T03:56:14.612Z,99773.28
2022-12-15T03:58:42.926Z,99768.88
2022-12-15T04:01:23.086Z,99765.06
2022-12-15T04:03:55.511Z,99764.16
2022-12-15T04:06:27.216Z,99750.63
2022-12-15T04:08:55.514Z,99749.72
2022-12-15T04:11:25.955Z,99755.69
2022-12-15T04:13:54.287Z,99734.19
2022-12-15T04:16:22.695Z,99740.66
2022-12-15T04:19:10.963Z,99734.66
2022-12-15T04:21:39.288Z,99725.84
2022-12-15T04:24:26.162Z,99719.84
2022-12-15T04:27:12.706Z,99711.56
2022-12-15T04:29:59.301Z,99709.38
2022-12-15T04:32:50.056Z,99701.81
2022-12-15T04:35:37.168Z,99699.09
2022-12-15T04:38:23.906Z,99690.28
2022-12-15T04:41:10.598Z,99676.38
2022-12-15T04:43:57.576Z,99669.31
2022-12-15T04:46:44.116Z,99670.13
2022-12-15T04:49:30.692Z,99659.78
2022-12-15T04:52:17.775Z,99655.50
2022-12-15T04:55:04.539Z,99644.94
2022-12-15T04:57:51.165Z,99643.22
2022-12-15T05:00:37.850Z,99634.13
2022-12-15T05:03:27.163Z,99633.88
2022-12-15T05:06:13.608Z,99623.31
2022-12-15T05:09:00.264Z,99619.50
2022-12-15T05:11:46.807Z,99608.84
2022-12-15T05:14:33.506Z,99599.47
2022-12-15T05:17:20.150Z,99593.38
2022-12-15T05:20:06.804Z,99583.47
2022-12-15T05:22:53.835Z,99583.25
2022-12-15T05:25:40.977Z,99561.91
2022-12-15T05:28:27.843Z,99562.47
2022-12-15T05:31:14.400Z,99554.59
2022-12-15T05:33:42.835Z,99553.84
2022-12-15T05:36:11.386Z,99550.31
2022-12-15T05:38:39.711Z,99547.53
2022-12-15T05:41:08.353Z,99543.22
2022-12-15T05:43:36.677Z,99531.59
2022-12-15T05:46:06.102Z,99532.88
2022-12-15T05:48:34.445Z,99525.00
2022-12-15T05:51:08.434Z,99517.91
2022-12-15T05:53:38.791Z,99509.25
2022-12-15T05:56:10.490Z,99503.41
2022-12-15T05:58:44.831Z,99492.97
2022-12-15T06:01:18.677Z,99482.06
2022-12-15T06:03:48.467Z,99467.56
2022-12-15T06:06:16.801Z,99457.88
2022-12-15T06:08:45.510Z,99452.03
2022-12-15T06:11:20.834Z,99439.03
2022-12-15T06:13:49.867Z,99445.16
2022-12-15T06:16:22.790Z,99443.63
2022-12-15T06:18:56.979Z,99435.50
2022-12-15T06:21:33.550Z,99426.56
2022-12-15T06:24:02.045Z,99416.91
2022-12-15T06:26:36.826Z,99417.91
2022-12-15T06:29:07.908Z,99409.28
2022-12-15T06:31:37.551Z,99405.47
2022-12-15T06:34:08.474Z,99400.88
2022-12-15T06:36:37.616Z,99401.38
2022-12-15T06:39:08.078Z,99399.59
2022-12-15T06:41:36.671Z,99389.66
2022-12-15T06:44:05.928Z,99387.34
2022-12-15T06:46:35.974Z,99380.47
2022-12-15T06:49:04.413Z,99375.13
2022-12-15T06:51:33.669Z,99370.53
2022-12-15T06:54:02.690Z,99359.06
2022-12-15T06:56:34.929Z,99353.72
2022-12-15T06:59:05.408Z,99351.69
2022-12-15T07:01:34.344Z,99339.47
2022-12-15T07:04:05.416Z,99337.69
2022-12-15T07:06:37.641Z,99333.09
2022-12-15T07:09:11.353Z,99330.56
2022-12-15T07:11:39.747Z,99332.06
2022-12-15T07:14:08.193Z,99327.47
2022-12-15T07:16:36.657Z,99327.22
2022-12-15T07:19:05.023Z,99319.81
2022-12-15T07:21:33.846Z,99323.63
2022-12-15T07:24:02.764Z,99309.34
2022-12-15T07:26:31.504Z,99304.50
2022-12-15T07:28:59.821Z,99311.66
2022-12-15T07:31:28.235Z,99297.63
2022-12-15T07:33:58.943Z,99295.84
2022-12-15T07:36:28.629Z,99297.38
2022-12-15T07:39:01.957Z,99295.56
2022-12-15T07:41:31.099Z,99297.09
2022-12-15T07:43:59.957Z,99287.91
2022-12-15T07:46:29.936Z,99282.56
2022-12-15T07:48:58.410Z,99282.28
2022-12-15T07:51:26.819Z,99288.91
2022-12-15T07:53:55.152Z,99283.53
2022-12-15T07:56:23.465Z,99274.59
2022-12-15T07:58:52.382Z,99268.22
2022-12-15T08:01:20.922Z,99269.00
2022-12-15T08:03:50.646Z,99272.03
2022-12-15T08:06:19.025Z,99261.06
2022-12-15T08:08:50.049Z,99268.97
2022-12-15T08:11:19.903Z,99254.41
2022-12-15T08:14:05.740Z,99261.06
2022-12-15T08:16:37.434Z,99258.25
2022-12-15T08:19:12.321Z,99255.94
2022-12-15T08:21:41.994Z,99249.84
2022-12-15T08:24:11.617Z,99253.13
2022-12-15T08:26:41.542Z,99248.81
2022-12-15T08:32:02.664Z,99249.06
2022-12-15T08:34:31.110Z,99250.34
2022-12-15T08:36:59.389Z,99244.75
2022-12-15T08:39:27.962Z,99241.44
2022-12-15T08:41:57.643Z,99236.81
2022-12-15T08:44:25.950Z,99234.53
2022-12-15T08:46:54.279Z,99234.53
2022-12-15T08:49:22.701Z,99237.34
2022-12-15T08:51:51.421Z,99240.13
2022-12-15T08:54:20.472Z,99234.28
2022-12-15T08:56:49.092Z,99242.47
2022-12-15T08:59:17.881Z,99239.41
2022-12-15T09:01:46.322Z,99236.13
2022-12-15T09:04:14.881Z,99236.41
2022-12-15T09:06:43.710Z,99243.56
2022-12-15T09:09:15.099Z,99240.28
2022-12-15T09:11:43.536Z,99241.78
2022-12-15T09:14:11.842Z,99241.81
2022-12-15T09:16:40.177Z,99243.34
2022-12-15T09:19:09.290Z,99242.59
2022-12-15T09:21:38.175Z,99240.31
2022-12-15T09:24:06.877Z,99238.53
2022-12-15T09:26:35.935Z,99240.31
2022-12-15T09:29:04.489Z,99245.97
2022-12-15T09:31:35.149Z,99243.41
2022-12-15T09:34:03.880Z,99250.28
2022-12-15T09:36:33.535Z,99256.16
2022-12-15T09:39:05.166Z,99249.28
2022-12-15T09:41:37.808Z,99257.97
2022-12-15T09:44:16.078Z,99248.03
2022-12-15T09:47:38.376Z,99258.00
2022-12-15T09:50:13.624Z,99249.31
2022-12-15T09:52:52.755Z,99249.09
2022-12-15T09:55:33.640Z,99247.56
2022-12-15T09:58:12.810Z,99253.19
2022-12-15T10:00:57.984Z,99248.06
2022-12-15T10:03:57.422Z,99252.63
2022-12-15T10:06:51.451Z,99264.59
2022-12-15T10:09:22.367Z,99265.13
2022-12-15T10:11:57.926Z,99260.25
2022-12-15T10:14:44.671Z,99262.28
2022-12-15T10:17:27.977Z,99271.72
2022-12-15T10:20:11.252Z,99268.66
2022-12-15T10:22:39.970Z,99271.66
2022-12-15T10:25:30.447Z,99277.00
2022-12-15T10:28:51.073Z,99281.75
2022-12-15T10:31:43.239Z,99288.34
2022-12-15T10:34:33.185Z,99297.72
2022-12-15T10:37:01.713Z,99297.16
2022-12-15T10:39:44.592Z,99305.25
2022-12-15T10:42:17.824Z,99314.88
2022-12-15T10:44:50.661Z,99320.94
2022-12-15T10:47:22.978Z,99323.41
2022-12-15T10:49:52.160Z,99322.84
2022-12-15T10:52:40.574Z,99330.66
2022-12-15T10:55:38.063Z,99329.28
2022-12-15T10:58:23.011Z,99339.13
2022-12-15T11:01:09.267Z,99346.41
2022-12-15T11:03:40.146Z,99350.91
2022-12-15T11:06:23.734Z,99351.84
2022-12-15T11:09:14.225Z,99353.28
2022-12-15T11:12:11.986Z,99357.47
2022-12-15T11:14:52.266Z,99358.41
2022-12-15T11:17:25.034Z,99356.03
2022-12-15T11:20:07.793Z,99354.91
2022-12-15T11:22:54.332Z,99362.19
2022-12-15T11:25:44.242Z,99357.81
2022-12-15T11:28:49.701Z,99364.28
2022-12-15T11:31:38.204Z,99366.22
2022-12-15T11:34:18.356Z,99372.50
2022-12-15T11:36:56.366Z,99381.56
2022-12-15T11:39:36.529Z,99379.47
2022-12-15T11:42:19.776Z,99382.19
2022-12-15T11:45:24.714Z,99388.94
2022-12-15T11:48:10.949Z,99400.50
2022-12-15T11:51:03.707Z,99407.22
2022-12-15T11:53:42.190Z,99411.94
2022-12-15T11:56:10.521Z,99409.81
2022-12-15T11:58:49.400Z,99413.28
2022-12-15T12:01:37.696Z,99415.22
2022-12-15T12:04:40.979Z,99418.69
2022-12-15T12:07:19.581Z,99426.47
2022-12-15T12:10:28.335Z,99427.94
2022-12-15T12:13:02.381Z,99435.69
2022-12-15T12:15:47.142Z,99429.53
2022-12-15T12:18:32.646Z,99433.78
2022-12-15T12:21:08.052Z,99436.75
2022-12-15T12:23:40.649Z,99435.72
2022-12-15T12:26:14.076Z,99442.22
2022-12-15T12:28:53.186Z,99445.22
2022-12-15T12:31:44.916Z,99452.19
2022-12-15T12:34:44.694Z,99452.88
2022-12-15T12:37:44.471Z,99459.09
2022-12-15T12:40:43.231Z,99460.06
2022-12-15T12:43:21.261Z,99460.50
2022-12-15T12:46:08.204Z,99459.44
2022-12-15T12:48:38.936Z,99460.41
2022-12-15T12:51:34.736Z,99462.91
2022-12-15T12:54:03.729Z,99472.19
2022-12-15T12:56:40.862Z,99474.66
2022-12-15T12:59:30.966Z,99472.06
2022-12-15T13:02:22.572Z,99479.34
2022-12-15T13:05:01.508Z,99483.88
2022-12-15T13:07:36.128Z,99486.84
2022-12-15T13:10:10.872Z,99494.88
2022-12-15T13:13:02.398Z,99499.38
2022-12-15T13:15:30.701Z,99488.44
2022-12-15T13:18:24.750Z,99490.16
2022-12-15T13:20:56.652Z,99499.91
2022-12-15T13:23:25.018Z,99504.88
2022-12-15T13:25:59.318Z,99503.06
2022-12-15T13:28:36.345Z,99503.22
2022-12-15T13:31:20.358Z,99510.22
2022-12-15T13:33:52.026Z,99508.84
2022-12-15T13:36:38.719Z,99505.47
2022-12-15T13:39:29.874Z,99502.06
2022-12-15T13:44:58.275Z,99499.19
2022-12-15T13:47:30.932Z,99503.19
2022-12-15T13:50:03.037Z,99510.78
2022-12-15T13:55:42.696Z,99500.00
2022-12-15T13:58:10.969Z,99508.81
2022-12-15T14:00:40.741Z,99506.94
2022-12-15T14:03:13.379Z,99502.81
2022-12-15T14:05:44.077Z,99511.63
2022-12-15T14:08:19.568Z,99508.97
2022-12-15T14:10:54.908Z,99518.25
2022-12-15T14:13:23.181Z,99517.19
2022-12-15T14:16:01.808Z,99522.44
2022-12-15T14:18:36.171Z,99521.38
2022-12-15T14:21:19.287Z,99519.53
2022-12-15T14:24:11.378Z,99526.50
2022-12-15T14:26:36.158Z,99525.44
2022-12-15T14:29:07.148Z,99519.56
2022-12-15T14:31:38.984Z,99519.28
2022-12-15T14:34:16.777Z,99515.41
2022-12-15T14:36:46.951Z,99519.88
2022-12-15T14:39:30.369Z,99520.34
2022-12-15T14:42:02.260Z,99516.81
2022-12-15T14:44:51.385Z,99508.16
2022-12-15T14:47:28.508Z,99507.88
2022-12-15T14:49:59.545Z,99515.91
2022-12-15T14:52:36.939Z,99507.28
2022-12-15T14:55:36.267Z,99508.50
2022-12-15T14:58:36.984Z,99508.97
2022-12-15T15:01:22.862Z,99513.00
2022-12-15T15:04:05.342Z,99508.69
2022-12-15T15:06:40.277Z,99511.91
2022-12-15T15:09:26.918Z,99513.16
2022-12-15T15:12:06.236Z,99510.84
2022-12-15T15:14:39.058Z,99516.09
2022-12-15T15:17:07.555Z,99516.56
2022-12-15T15:19:40.544Z,99512.22
2022-12-15T15:22:26.247Z,99508.38
2022-12-15T15:24:54.650Z,99513.16
2022-12-15T15:27:36.437Z,99522.72
2022-12-15T15:30:24.870Z,99516.88
2022-12-15T15:32:56.155Z,99521.34
2022-12-15T15:35:27.410Z,99522.28
2022-12-15T15:38:12.553Z,99517.97
2022-12-15T15:40:40.839Z,99517.66
2022-12-15T15:43:13.582Z,99514.28
2022-12-15T15:45:43.183Z,99506.09
2022-12-15T15:48:22.608Z,99509.81
2022-12-15T15:50:51.117Z,99507.50
2022-12-15T15:53:25.248Z,99504.38
2022-12-15T15:55:56.879Z,99499.28
2022-12-15T15:58:25.253Z,99502.53
2022-12-15T16:00:54.456Z,99501.75
2022-12-15T16:03:22.957Z,99495.91
2022-12-15T16:05:51.382Z,99497.91
2022-12-15T16:08:24.542Z,99501.91
2022-12-15T16:10:53.547Z,99499.59
2022-12-15T16:13:26.198Z,99503.63
2022-12-15T16:15:56.035Z,99500.53
2022-12-15T16:18:24.466Z,99491.91
2022-12-15T16:20:54.891Z,99497.59
2022-12-15T16:23:28.801Z,99499.31
2022-12-15T16:25:59.756Z,99501.78
2022-12-15T16:28:31.213Z,99488.38
2022-12-15T16:31:00.302Z,99483.72
2022-12-15T16:33:29.283Z,99488.97
2022-12-15T16:35:59.937Z,99486.66
2022-12-15T16:38:33.274Z,99489.88
2022-12-15T16:41:09.385Z,99483.56
2022-12-15T16:43:41.568Z,99472.94
2022-12-15T16:46:15.722Z,99471.41
2022-12-15T16:48:44.797Z,99478.19
2022-12-15T16:51:36.225Z,99474.34
2022-12-15T16:54:04.909Z,99473.56
2022-12-15T16:56:33.665Z,99469.25
2022-12-15T16:59:32.001Z,99471.72
2022-12-15T17:01:50.605Z,99469.41
2022-12-15T17:04:20.122Z,99470.63
2022-12-15T17:06:48.758Z,99468.78
2022-12-15T17:09:23.588Z,99469.25
2022-12-15T17:11:52.850Z,99468.19
2022-12-15T17:14:21.148Z,99463.88
2022-12-15T17:16:49.558Z,99460.75
2022-12-15T17:19:21.029Z,99460.00
2022-12-15T17:21:53.915Z,99460.00
2022-12-15T17:24:23.247Z,99462.00
2022-12-15T17:26:52.149Z,99455.69
2022-12-15T17:29:23.812Z,99460.00
2022-12-15T17:31:52.762Z,99452.13
2022-12-15T17:34:31.216Z,99458.13
2022-12-15T17:37:02.246Z,99451.06
2022-12-15T17:39:31.512Z,99443.97
2022-12-15T17:42:01.391Z,99441.66
2022-12-15T17:44:38.245Z,99439.66
2022-12-15T17:47:09.385Z,99444.13
2022-12-15T17:49:39.097Z,99436.72
2022-12-15T17:52:35.337Z,99435.97
2022-12-15T17:55:05.691Z,99439.50
2022-12-15T17:57:34.157Z,99434.41
2022-12-15T18:00:02.863Z,99432.13
2022-12-15T18:02:31.702Z,99439.34
2022-12-15T18:05:00.546Z,99429.97
2022-12-15T18:07:28.921Z,99431.97
2022-12-15T18:09:57.334Z,99443.50
2022-12-15T18:12:27.868Z,99439.19
2022-12-15T18:14:57.810Z,99430.56
2022-12-15T18:17:26.144Z,99435.31
2022-12-15T18:19:54.488Z,99428.69
2022-12-15T18:22:25.439Z,99424.84
2022-12-15T18:24:55.365Z,99426.53
2022-12-15T18:27:28.399Z,99423.75
2022-12-15T18:30:00.623Z,99419.91
2022-12-15T18:32:30.819Z,99416.84
2022-12-15T18:34:59.335Z,99421.59
2022-12-15T18:37:29.057Z,99415.72
2022-12-15T18:40:03.975Z,99421.72
2022-12-15T18:42:33.263Z,99422.50
2022-12-15T18:45:03.214Z,99421.41
2022-12-15T18:47:31.686Z,99416.34
2022-12-15T18:49:59.987Z,99421.88
2022-12-15T18:52:34.295Z,99414.81
2022-12-15T18:55:03.148Z,99415.56
2022-12-15T18:57:34.688Z,99413.88
2022-12-15T19:00:15.336Z,99410.66
2022-12-15T19:02:44.242Z,99403.09
2022-12-15T19:05:28.314Z,99405.09
2022-12-15T19:08:12.352Z,99400.78
2022-12-15T19:10:53.239Z,99401.56
2022-12-15T19:13:24.307Z,99409.09
2022-12-15T19:15:54.368Z,99401.25
2022-12-15T19:18:42.999Z,99397.72
2022-12-15T19:21:42.350Z,99402.19
2022-12-15T19:24:45.892Z,99388.47
2022-12-15T19:27:17.098Z,99400.78
2022-12-15T19:29:46.092Z,99396.91
2022-12-15T19:32:14.789Z,99398.13
2022-12-15T19:34:43.277Z,99393.06
2022-12-15T19:37:29.210Z,99387.22
2022-12-15T19:40:00.107Z,99390.75
2022-12-15T19:42:38.014Z,99391.22
2022-12-15T19:45:24.426Z,99386.13
2022-12-15T19:47:52.911Z,99390.91
2022-12-15T19:50:26.833Z,99386.28
2022-12-15T19:53:03.131Z,99387.50
2022-12-15T19:55:34.969Z,99386.44
2022-12-15T19:58:27.418Z,99395.97
2022-12-15T20:00:59.208Z,99388.13
2022-12-15T20:03:30.004Z,99387.81
2022-12-15T20:06:00.283Z,99393.34
2022-12-15T20:08:34.604Z,99395.34
2022-12-15T20:11:03.079Z,99391.03
2022-12-15T20:13:32.146Z,99394.56
2022-12-15T20:16:00.777Z,99401.34
2022-12-15T20:18:29.329Z,99393.50
2022-12-15T20:20:57.956Z,99400.25
2022-12-15T20:23:29.975Z,99395.19
2022-12-15T20:25:59.217Z,99395.63
2022-12-15T20:28:29.953Z,99396.84
2022-12-15T20:30:59.214Z,99392.53
2022-12-15T20:33:27.592Z,99381.47
2022-12-15T20:35:55.883Z,99390.22
2022-12-15T20:38:35.741Z,99390.22
2022-12-15T20:41:04.904Z,99393.00
2022-12-15T20:43:35.574Z,99387.44
2022-12-15T20:46:06.891Z,99391.00
2022-12-15T20:48:37.603Z,99390.22
2022-12-15T20:51:10.004Z,99389.44
2022-12-15T20:53:39.916Z,99381.59
2022-12-15T20:56:09.054Z,99379.28
2022-12-15T20:58:40.856Z,99386.06
2022-12-15T21:01:25.045Z,99387.28
2022-12-15T21:03:56.720Z,99386.50
2022-12-15T21:06:27.405Z,99392.97
2022-12-15T21:08:56.557Z,99394.66
2022-12-15T21:11:28.380Z,99395.88
2022-12-15T21:13:59.782Z,99391.56
2022-12-15T21:16:30.728Z,99392.81
2022-12-15T21:21:52.259Z,99388.94
2022-12-15T21:24:26.571Z,99399.72
2022-12-15T21:26:55.216Z,99393.41
2022-12-15T21:29:26.410Z,99393.88
2022-12-15T21:31:54.761Z,99393.09
2022-12-15T21:34:23.114Z,99389.97
2022-12-15T21:36:55.028Z,99392.75
2022-12-15T21:39:37.884Z,99397.50
2022-12-15T21:42:13.187Z,99397.97
2022-12-15T21:44:42.539Z,99399.66
2022-12-15T21:47:51.923Z,99403.97
2022-12-15T21:50:21.093Z,99407.97
2022-12-15T21:52:49.959Z,99405.19
2022-12-15T21:55:22.302Z,99413.50
2022-12-15T21:57:51.678Z,99416.72
2022-12-15T22:00:20.730Z,99413.63
2022-12-15T22:02:50.956Z,99416.84
2022-12-15T22:05:31.505Z,99424.06
2022-12-15T22:08:12.049Z,99429.28
2022-12-15T22:10:40.677Z,99424.22
2022-12-15T22:13:17.530Z,99428.22
2022-12-15T22:15:46.240Z,99435.41
2022-12-15T22:18:20.572Z,99441.41
2022-12-15T22:20:50.837Z,99433.09
2022-12-15T22:23:20.509Z,99428.03
2022-12-15T22:25:52.429Z,99432.47
2022-12-15T22:28:26.499Z,99442.78
2022-12-15T22:30:57.129Z,99446.75
2022-12-15T22:33:27.297Z,99445.97
2022-12-15T22:35:57.079Z,99448.41
2022-12-15T22:38:25.986Z,99453.19
2022-12-15T22:40:58.474Z,99459.59
2022-12-15T22:43:32.986Z,99462.34
2022-12-15T22:46:01.942Z,99463.56
2022-12-15T22:48:35.144Z,99467.13
2022-12-15T22:51:05.236Z,99471.09
2022-12-15T22:53:36.716Z,99485.72
2022-12-15T22:56:08.760Z,99479.41
2022-12-15T22:58:44.103Z,99486.94
2022-12-15T23:01:13.190Z,99493.69
2022-12-15T23:03:41.545Z,99505.53
2022-12-15T23:06:09.959Z,99515.81
2022-12-15T23:08:38.265Z,99511.50
2022-12-15T23:11:25.048Z,99509.97
2022-12-15T23:13:53.333Z,99515.50
2022-12-15T23:16:23.324Z,99517.50
2022-12-15T23:18:56.535Z,99525.03
2022-12-15T23:21:25.879Z,99527.78
2022-12-15T23:23:54.245Z,99527.47
2022-12-15T23:26:24.717Z,99532.22
2022-12-15T23:28:55.260Z,99534.22
2022-12-15T23:31:24.101Z,99535.44
2022-12-15T23:33:52.455Z,99537.88
2022-12-15T23:36:21.062Z,99545.41
2022-12-15T23:38:49.453Z,99542.31
2022-12-15T23:41:19.477Z,99547.84
2022-12-15T23:43:48.050Z,99560.91
2022-12-15T23:46:16.463Z,99566.44
2022-12-15T23:48:45.663Z,99561.69
2022-12-15T23:51:19.353Z,99567.53
2022-12-15T23:53:48.946Z,99567.88
2022-12-15T23:56:19.998Z,99564.66
2022-12-15T23:58:50.107Z,99566.19
